Kitchener, Canada
Current Conditions -  °F | °C
As of 1:24 PM on Thursday 29 Jan 2015 (Local Time) from CYKF Reporting Station
Overcast Overcast  
Wind Chill: -8°   Ceiling: 2100
Heat Index: -3°   Visibility: 9mi
Dew Point: -5°   Wind: 9mph
Humidity: 86%   Direction: 170°S
Pressure: 29.71"   Gusts: NA
Location:  43.45°N, 80.49°W
Report Text: CYKF 291824Z AUTO 17008KT 9SM OVC021 M03/M05 A2971 RMK SLP075
Loading
Personal Weather Stations






























Interactive Weather Map New forecast layout! Learn more

10-Day Weather Forecast

Advertisements
Track Severe Weather on mobile